createdAt,value
2022-11-03T00:00:26.927Z,7.90
2022-11-03T00:03:15.240Z,7.90
2022-11-03T00:06:06.790Z,7.90
2022-11-03T00:08:58.410Z,7.90
2022-11-03T00:11:50.729Z,7.80
2022-11-03T00:14:39.118Z,7.80
2022-11-03T00:17:27.434Z,7.70
2022-11-03T00:20:15.970Z,7.70
2022-11-03T00:23:04.553Z,7.70
2022-11-03T00:25:53.128Z,7.70
2022-11-03T00:28:44.110Z,7.60
2022-11-03T00:31:34.327Z,7.60
2022-11-03T00:34:22.668Z,7.60
2022-11-03T00:37:11.073Z,7.50
2022-11-03T00:39:59.397Z,7.50
2022-11-03T00:42:47.871Z,7.50
2022-11-03T00:45:37.576Z,7.50
2022-11-03T00:48:32.457Z,7.50
2022-11-03T00:51:22.309Z,7.50
2022-11-03T00:54:10.869Z,7.50
2022-11-03T00:56:59.388Z,7.50
2022-11-03T00:59:47.717Z,7.50
2022-11-03T01:02:37.470Z,7.50
2022-11-03T01:05:55.008Z,7.50
2022-11-03T01:08:43.376Z,7.40
2022-11-03T01:11:46.546Z,7.40
2022-11-03T01:14:37.625Z,7.40
2022-11-03T01:17:27.737Z,7.40
2022-11-03T01:20:18.645Z,7.40
2022-11-03T01:23:07.356Z,7.40
2022-11-03T01:25:55.937Z,7.40
2022-11-03T01:28:46.830Z,7.40
2022-11-03T01:31:35.201Z,7.30
2022-11-03T01:34:23.889Z,7.30
2022-11-03T01:37:13.587Z,7.30
2022-11-03T01:40:01.971Z,7.30
2022-11-03T01:42:50.331Z,7.30
2022-11-03T01:45:38.716Z,7.40
2022-11-03T01:48:27.157Z,7.40
2022-11-03T01:51:20.365Z,7.40
2022-11-03T01:54:19.119Z,7.50
2022-11-03T01:57:12.752Z,7.50
2022-11-03T02:00:02.579Z,7.50
2022-11-03T02:02:51.971Z,7.50
2022-11-03T02:05:41.426Z,7.60
2022-11-03T02:08:35.817Z,7.60
2022-11-03T02:11:43.328Z,7.60
2022-11-03T02:14:31.682Z,7.60
2022-11-03T02:17:22.630Z,7.60
2022-11-03T02:20:14.165Z,7.60
2022-11-03T02:23:18.395Z,7.60
2022-11-03T02:26:09.330Z,7.60
2022-11-03T02:28:57.724Z,7.50
2022-11-03T02:31:51.768Z,7.50
2022-11-03T02:34:45.308Z,7.40
2022-11-03T02:37:36.792Z,7.40
2022-11-03T02:40:30.385Z,7.30
2022-11-03T02:43:22.446Z,7.30
2022-11-03T02:46:12.570Z,7.30
2022-11-03T02:49:00.893Z,7.30
2022-11-03T02:51:49.201Z,7.30
2022-11-03T02:54:41.483Z,7.30
2022-11-03T02:57:34.935Z,7.30
2022-11-03T03:00:25.428Z,7.30
2022-11-03T03:03:19.852Z,7.30
2022-11-03T03:06:11.826Z,7.30
2022-11-03T03:09:04.828Z,7.20
2022-11-03T03:11:56.334Z,7.30
2022-11-03T03:14:47.943Z,7.20
2022-11-03T03:17:45.991Z,7.30
2022-11-03T03:20:40.950Z,7.30
2022-11-03T03:23:34.908Z,7.20
2022-11-03T03:26:29.283Z,7.20
2022-11-03T03:29:23.412Z,7.20
2022-11-03T03:32:13.130Z,7.20
2022-11-03T03:35:05.178Z,7.20
2022-11-03T03:37:57.818Z,7.20
2022-11-03T03:40:51.404Z,7.20
2022-11-03T03:43:41.211Z,7.10
2022-11-03T03:46:34.788Z,7.10
2022-11-03T03:49:23.216Z,7.10
2022-11-03T03:52:13.493Z,7.10
2022-11-03T03:55:01.913Z,7.20
2022-11-03T03:57:50.337Z,7.20
2022-11-03T04:00:40.148Z,7.20
2022-11-03T04:03:29.370Z,7.30
2022-11-03T04:06:17.677Z,7.30
2022-11-03T04:09:07.361Z,7.30
2022-11-03T04:12:13.026Z,7.30
2022-11-03T04:15:18.974Z,7.30
2022-11-03T04:18:24.937Z,7.20
2022-11-03T04:21:32.744Z,7.10
2022-11-03T04:24:22.443Z,7.10
2022-11-03T04:27:27.594Z,7.00
2022-11-03T04:30:17.896Z,7.00
2022-11-03T04:33:12.064Z,6.90
2022-11-03T04:36:01.205Z,6.80
2022-11-03T04:38:50.473Z,6.70
2022-11-03T04:41:40.253Z,6.70
2022-11-03T04:44:29.158Z,6.70
2022-11-03T04:47:19.658Z,6.70
2022-11-03T04:50:18.195Z,6.70
2022-11-03T04:53:12.452Z,6.70
2022-11-03T04:56:07.011Z,6.70
2022-11-03T04:58:59.026Z,6.70
2022-11-03T05:01:47.798Z,6.70
2022-11-03T05:04:36.254Z,6.70
2022-11-03T05:07:29.841Z,6.70
2022-11-03T05:10:20.366Z,6.60
2022-11-03T05:13:18.745Z,6.60
2022-11-03T05:16:09.621Z,6.60
2022-11-03T05:18:58.285Z,6.60
2022-11-03T05:21:48.574Z,6.50
2022-11-03T05:24:37.278Z,6.60
2022-11-03T05:27:25.986Z,6.60
2022-11-03T05:30:15.998Z,6.60
2022-11-03T05:33:18.637Z,6.70
2022-11-03T05:36:14.019Z,6.70
2022-11-03T05:39:25.993Z,6.70
2022-11-03T05:42:26.089Z,6.60
2022-11-03T05:45:23.640Z,6.60
2022-11-03T05:48:20.589Z,6.60
2022-11-03T05:51:19.969Z,6.60
2022-11-03T05:54:20.076Z,6.60
2022-11-03T05:57:11.834Z,6.50
2022-11-03T06:00:00.259Z,6.50
2022-11-03T06:02:50.632Z,6.50
2022-11-03T06:05:41.848Z,6.50
2022-11-03T06:08:38.939Z,6.50
2022-11-03T06:11:34.148Z,6.60
2022-11-03T06:14:24.817Z,6.60
2022-11-03T06:17:23.708Z,6.70
2022-11-03T06:20:19.936Z,6.70
2022-11-03T06:23:16.633Z,6.60
2022-11-03T06:26:10.790Z,6.60
2022-11-03T06:29:01.613Z,6.60
2022-11-03T06:31:51.702Z,6.70
2022-11-03T06:34:43.758Z,6.60
2022-11-03T06:37:35.282Z,6.60
2022-11-03T06:40:43.096Z,6.60
2022-11-03T06:43:40.836Z,6.70
2022-11-03T06:46:31.552Z,6.60
2022-11-03T06:49:37.557Z,6.60
2022-11-03T06:52:29.536Z,6.60
2022-11-03T06:55:26.124Z,6.60
2022-11-03T06:58:20.887Z,6.70
2022-11-03T07:01:16.260Z,6.70
2022-11-03T07:04:13.799Z,6.70
2022-11-03T07:07:03.982Z,6.70
2022-11-03T07:09:52.304Z,6.80
2022-11-03T07:12:41.711Z,6.80
2022-11-03T07:15:33.777Z,6.90
2022-11-03T07:18:25.135Z,7.00
2022-11-03T07:21:32.061Z,7.00
2022-11-03T07:24:23.687Z,7.10
2022-11-03T07:27:21.499Z,7.10
2022-11-03T07:30:20.219Z,7.20
2022-11-03T07:33:17.487Z,7.20
2022-11-03T07:36:15.930Z,7.30
2022-11-03T07:39:05.029Z,7.50
2022-11-03T07:41:53.663Z,7.60
2022-11-03T07:44:42.179Z,7.70
2022-11-03T07:47:30.446Z,7.70
2022-11-03T07:50:22.005Z,7.80
2022-11-03T07:53:14.442Z,7.90
2022-11-03T07:56:04.078Z,8.00
2022-11-03T07:58:55.492Z,8.00
2022-11-03T08:01:46.323Z,8.10
2022-11-03T08:04:36.197Z,8.10
2022-11-03T08:07:26.008Z,8.20
2022-11-03T08:10:14.418Z,8.30
2022-11-03T08:13:02.693Z,8.30
2022-11-03T08:15:50.957Z,8.40
2022-11-03T08:18:39.253Z,8.40
2022-11-03T08:21:27.490Z,8.50
2022-11-03T08:24:17.139Z,8.50
2022-11-03T08:27:05.676Z,8.60
2022-11-03T08:29:53.983Z,8.60
2022-11-03T08:32:42.294Z,8.70
2022-11-03T08:35:33.181Z,8.80
2022-11-03T08:38:22.580Z,8.80
2022-11-03T08:41:12.230Z,8.90
2022-11-03T08:44:00.575Z,9.00
2022-11-03T08:46:48.928Z,9.00
2022-11-03T08:49:37.229Z,9.10
2022-11-03T08:52:25.562Z,9.20
2022-11-03T08:55:13.831Z,9.20
2022-11-03T08:58:03.536Z,9.20
2022-11-03T09:00:51.914Z,9.20
2022-11-03T09:03:40.298Z,9.30
2022-11-03T09:06:28.619Z,9.40
2022-11-03T09:12:25.510Z,9.50
2022-11-03T09:15:15.241Z,9.60
2022-11-03T09:18:05.011Z,9.60
2022-11-03T09:20:53.610Z,9.60
2022-11-03T09:23:41.953Z,9.60
2022-11-03T09:26:30.294Z,9.70
2022-11-03T09:29:18.694Z,9.70
2022-11-03T09:32:08.473Z,9.70
2022-11-03T09:34:56.807Z,9.80
2022-11-03T09:37:45.446Z,9.90
2022-11-03T09:40:33.813Z,10.00
2022-11-03T09:43:22.295Z,10.00
2022-11-03T09:46:10.617Z,10.00
2022-11-03T09:49:00.736Z,10.00
2022-11-03T09:51:49.434Z,10.10
2022-11-03T09:54:37.794Z,10.20
2022-11-03T09:57:28.809Z,10.30
2022-11-03T10:00:20.887Z,10.30
2022-11-03T10:03:12.642Z,10.40
2022-11-03T10:06:02.507Z,10.50
2022-11-03T10:08:51.047Z,10.50
2022-11-03T10:11:39.879Z,10.40
2022-11-03T10:14:28.291Z,10.50
2022-11-03T10:17:19.632Z,10.60
2022-11-03T10:20:12.174Z,10.60
2022-11-03T10:23:01.795Z,10.60
2022-11-03T10:25:50.140Z,10.80
2022-11-03T10:28:39.517Z,10.90
2022-11-03T10:31:35.522Z,11.10
2022-11-03T10:34:36.495Z,11.20
2022-11-03T10:37:26.676Z,11.30
2022-11-03T10:40:51.449Z,11.40
2022-11-03T10:43:40.307Z,11.50
2022-11-03T10:46:49.733Z,11.60
2022-11-03T10:49:42.419Z,11.70
2022-11-03T10:52:32.232Z,11.70
2022-11-03T10:55:25.181Z,11.80
2022-11-03T10:58:14.083Z,11.90
2022-11-03T11:01:02.469Z,12.10
2022-11-03T11:03:54.932Z,12.20
2022-11-03T11:06:46.587Z,12.40
2022-11-03T11:09:35.091Z,12.70
2022-11-03T11:12:26.177Z,12.70
2022-11-03T11:15:29.227Z,12.90
2022-11-03T11:18:50.791Z,13.10
2022-11-03T11:22:02.551Z,13.30
2022-11-03T11:25:04.067Z,13.40
2022-11-03T11:28:11.902Z,13.50
2022-11-03T11:31:03.211Z,13.60
2022-11-03T11:33:51.652Z,13.60
2022-11-03T11:36:41.650Z,13.70
2022-11-03T11:39:54.143Z,13.70
2022-11-03T11:43:19.718Z,13.70
2022-11-03T11:46:40.848Z,13.60
2022-11-03T11:49:29.376Z,13.60
2022-11-03T11:52:19.213Z,13.70
2022-11-03T11:55:16.919Z,13.80
2022-11-03T11:58:07.437Z,13.90
2022-11-03T12:01:01.325Z,13.90
2022-11-03T12:03:53.116Z,13.90
2022-11-03T12:06:46.297Z,14.10
2022-11-03T12:09:34.654Z,14.20
2022-11-03T12:12:35.379Z,14.30
2022-11-03T12:15:49.366Z,14.40
2022-11-03T12:18:42.546Z,14.50
2022-11-03T12:21:51.978Z,14.40
2022-11-03T12:24:51.023Z,14.40
2022-11-03T12:27:44.298Z,14.50
2022-11-03T12:30:38.438Z,14.40
2022-11-03T12:33:29.044Z,14.40
2022-11-03T12:36:17.537Z,14.40
2022-11-03T12:39:07.299Z,14.40
2022-11-03T12:41:55.577Z,14.40
2022-11-03T12:44:44.082Z,14.40
2022-11-03T12:47:32.595Z,14.30
2022-11-03T12:50:20.912Z,14.30
2022-11-03T12:53:09.643Z,14.20
2022-11-03T12:55:59.531Z,14.10
2022-11-03T12:58:47.842Z,14.10
2022-11-03T13:01:36.302Z,14.10
2022-11-03T13:04:24.789Z,14.20
2022-11-03T13:07:13.138Z,14.20
2022-11-03T13:10:01.444Z,14.20
2022-11-03T13:12:51.204Z,14.20
2022-11-03T13:15:39.533Z,14.20
2022-11-03T13:18:27.861Z,14.10
2022-11-03T13:21:16.266Z,14.00
2022-11-03T13:24:04.944Z,14.10
2022-11-03T13:26:53.296Z,14.10
2022-11-03T13:29:43.126Z,14.00
2022-11-03T13:32:31.421Z,14.00
2022-11-03T13:35:20.036Z,14.00
2022-11-03T13:38:08.416Z,14.00
2022-11-03T13:41:01.113Z,14.00
2022-11-03T13:43:53.740Z,14.00
2022-11-03T13:46:43.461Z,13.90
2022-11-03T13:52:40.127Z,13.80
2022-11-03T13:55:43.864Z,13.80
2022-11-03T14:01:41.047Z,13.70
2022-11-03T14:04:46.462Z,13.60
2022-11-03T14:07:34.785Z,13.60
2022-11-03T14:10:23.138Z,13.60
2022-11-03T14:13:11.474Z,13.60
2022-11-03T14:15:59.870Z,13.60
2022-11-03T14:18:48.267Z,13.60
2022-11-03T14:21:40.598Z,13.70
2022-11-03T14:24:29.213Z,13.60
2022-11-03T14:27:17.571Z,13.70
2022-11-03T14:30:07.008Z,13.70
2022-11-03T14:32:59.435Z,13.70
2022-11-03T14:35:48.183Z,13.70
2022-11-03T14:38:37.870Z,13.60
2022-11-03T14:41:43.665Z,13.60
2022-11-03T14:44:32.926Z,13.50
2022-11-03T14:47:22.315Z,13.40
2022-11-03T14:50:11.094Z,13.40
2022-11-03T14:53:00.060Z,13.30
2022-11-03T14:55:49.935Z,13.30
2022-11-03T14:58:38.233Z,13.30
2022-11-03T15:01:26.702Z,13.20
2022-11-03T15:04:15.345Z,13.20
2022-11-03T15:07:03.800Z,13.10
2022-11-03T15:09:52.114Z,13.00
2022-11-03T15:12:41.892Z,13.00
2022-11-03T15:15:30.821Z,13.00
2022-11-03T15:18:19.280Z,12.90
2022-11-03T15:21:08.142Z,12.90
2022-11-03T15:27:04.921Z,12.80
2022-11-03T15:29:54.633Z,12.80
2022-11-03T15:32:42.974Z,12.70
2022-11-03T15:35:31.579Z,12.70
2022-11-03T15:38:19.970Z,12.60
2022-11-03T15:41:17.238Z,12.60
2022-11-03T15:44:05.643Z,12.60
2022-11-03T15:46:55.327Z,12.60
2022-11-03T15:49:43.675Z,12.50
2022-11-03T15:52:32.004Z,12.50
2022-11-03T15:55:21.636Z,12.50
2022-11-03T15:58:10.457Z,12.40
2022-11-03T16:00:59.157Z,12.40
2022-11-03T16:03:48.982Z,12.30
2022-11-03T16:07:06.084Z,12.30
2022-11-03T16:09:46.844Z,12.30
2022-11-03T16:12:36.114Z,12.30
2022-11-03T16:15:24.403Z,12.30
2022-11-03T16:18:12.784Z,12.20
2022-11-03T16:21:02.449Z,12.20
2022-11-03T16:23:50.826Z,12.20
2022-11-03T16:26:39.154Z,12.10
2022-11-03T16:29:27.488Z,12.10
2022-11-03T16:32:15.845Z,12.00
2022-11-03T16:35:04.475Z,12.10
2022-11-03T16:37:56.416Z,12.10
2022-11-03T16:40:44.996Z,12.10
2022-11-03T16:43:33.301Z,12.00
2022-11-03T16:46:21.792Z,12.00
2022-11-03T16:49:10.498Z,12.00
2022-11-03T16:51:59.032Z,11.90
2022-11-03T16:54:51.865Z,11.90
2022-11-03T16:57:40.631Z,11.80
2022-11-03T17:00:28.949Z,11.80
2022-11-03T17:03:17.293Z,11.70
2022-11-03T17:06:05.917Z,11.70
2022-11-03T17:08:54.410Z,11.70
2022-11-03T17:11:44.087Z,11.60
2022-11-03T17:14:32.498Z,11.60
2022-11-03T17:17:21.256Z,11.50
2022-11-03T17:20:10.942Z,11.50
2022-11-03T17:22:59.321Z,11.50
2022-11-03T17:25:47.779Z,11.50
2022-11-03T17:28:44.925Z,11.50
2022-11-03T17:31:33.243Z,11.50
2022-11-03T17:34:25.119Z,11.50
2022-11-03T17:37:13.537Z,11.50
2022-11-03T17:40:02.185Z,11.40
2022-11-03T17:42:51.138Z,11.40
2022-11-03T17:45:40.946Z,11.40
2022-11-03T17:48:29.300Z,11.40
2022-11-03T17:51:17.749Z,11.40
2022-11-03T17:54:08.164Z,11.40
2022-11-03T17:56:56.583Z,11.40
2022-11-03T17:59:47.072Z,11.40
2022-11-03T18:02:38.932Z,11.40
2022-11-03T18:05:29.967Z,11.40
2022-11-03T18:08:18.395Z,11.40
2022-11-03T18:11:07.102Z,11.40
2022-11-03T18:13:54.529Z,11.30
2022-11-03T18:16:43.004Z,11.40
2022-11-03T18:19:32.786Z,11.30
2022-11-03T18:22:21.157Z,11.30
2022-11-03T18:25:13.758Z,11.30
2022-11-03T18:28:02.087Z,11.30
2022-11-03T18:30:54.120Z,11.30
2022-11-03T18:33:42.483Z,11.20
2022-11-03T18:36:34.096Z,11.20
2022-11-03T18:39:24.757Z,11.20
2022-11-03T18:42:15.279Z,11.10
2022-11-03T18:45:10.679Z,11.10
2022-11-03T18:47:58.998Z,11.10
2022-11-03T18:50:49.247Z,11.10
2022-11-03T18:53:39.060Z,11.10
2022-11-03T18:56:28.417Z,11.00
2022-11-03T18:59:24.392Z,11.00
2022-11-03T19:02:18.401Z,11.00
2022-11-03T19:05:12.480Z,11.00
2022-11-03T19:08:03.593Z,10.90
2022-11-03T19:10:54.054Z,10.90
2022-11-03T19:13:44.388Z,10.80
2022-11-03T19:16:34.121Z,10.80
2022-11-03T19:19:22.405Z,10.80
2022-11-03T19:22:16.140Z,10.80
2022-11-03T19:25:05.156Z,10.80
2022-11-03T19:27:55.137Z,10.80
2022-11-03T19:30:43.975Z,10.80
2022-11-03T19:33:32.518Z,10.80
2022-11-03T19:36:20.969Z,10.70
2022-11-03T19:39:15.949Z,10.70
2022-11-03T19:42:28.750Z,10.70
2022-11-03T19:45:20.620Z,10.70
2022-11-03T19:48:23.574Z,10.70
2022-11-03T19:51:14.236Z,10.60
2022-11-03T19:54:02.695Z,10.50
2022-11-03T19:56:51.520Z,10.50
2022-11-03T19:59:41.302Z,10.50
2022-11-03T20:02:31.234Z,10.40
2022-11-03T20:05:19.760Z,10.40
2022-11-03T20:08:13.361Z,10.40
2022-11-03T20:11:02.313Z,10.40
2022-11-03T20:13:50.933Z,10.30
2022-11-03T20:16:39.446Z,10.30
2022-11-03T20:19:29.299Z,10.30
2022-11-03T20:22:23.870Z,10.30
2022-11-03T20:25:20.471Z,10.20
2022-11-03T20:28:17.946Z,10.10
2022-11-03T20:31:07.736Z,10.10
2022-11-03T20:33:56.192Z,10.00
2022-11-03T20:36:48.072Z,10.00
2022-11-03T20:39:37.643Z,10.00
2022-11-03T20:42:27.515Z,9.90
2022-11-03T20:45:19.134Z,10.00
2022-11-03T20:48:11.209Z,9.90
2022-11-03T20:51:02.019Z,9.90
2022-11-03T20:53:53.511Z,9.90
2022-11-03T20:56:42.411Z,9.90
2022-11-03T20:59:32.163Z,9.90
2022-11-03T21:02:23.073Z,9.90
2022-11-03T21:05:16.223Z,9.80
2022-11-03T21:08:04.741Z,9.80
2022-11-03T21:10:54.601Z,9.80
2022-11-03T21:13:42.998Z,9.90
2022-11-03T21:16:49.310Z,9.90
2022-11-03T21:19:55.074Z,9.90
2022-11-03T21:22:53.474Z,9.90
2022-11-03T21:25:43.256Z,9.80
2022-11-03T21:28:32.962Z,9.80
2022-11-03T21:31:21.288Z,9.80
2022-11-03T21:34:09.641Z,9.80
2022-11-03T21:36:58.050Z,9.80
2022-11-03T21:39:47.324Z,9.70
2022-11-03T21:42:53.025Z,9.70
2022-11-03T21:45:42.824Z,9.70
2022-11-03T21:48:49.070Z,9.80
2022-11-03T21:51:37.398Z,9.80
2022-11-03T21:54:25.725Z,9.80
2022-11-03T21:57:15.804Z,9.90
2022-11-03T22:00:04.788Z,9.90
2022-11-03T22:02:54.426Z,9.90
2022-11-03T22:05:42.729Z,10.00
2022-11-03T22:08:31.327Z,10.00
2022-11-03T22:11:22.733Z,10.00
2022-11-03T22:14:12.866Z,10.00
2022-11-03T22:20:12.323Z,10.00
2022-11-03T22:23:18.567Z,9.90
2022-11-03T22:26:27.030Z,9.90
2022-11-03T22:29:32.973Z,9.90
2022-11-03T22:32:21.309Z,9.90
2022-11-03T22:35:30.529Z,9.90
2022-11-03T22:38:21.069Z,9.90
2022-11-03T22:41:27.033Z,9.90
2022-11-03T22:44:32.889Z,9.80
2022-11-03T22:47:21.190Z,9.80
2022-11-03T22:50:11.346Z,9.90
2022-11-03T22:52:59.752Z,9.90
2022-11-03T22:55:47.062Z,10.00
2022-11-03T22:58:35.628Z,10.00
2022-11-03T23:01:26.719Z,10.00
2022-11-03T23:04:15.374Z,10.10
2022-11-03T23:07:05.054Z,10.00
2022-11-03T23:09:53.427Z,10.00
2022-11-03T23:12:41.755Z,10.00
2022-11-03T23:15:32.919Z,10.00
2022-11-03T23:18:38.818Z,10.00
2022-11-03T23:21:28.408Z,10.00
2022-11-03T23:24:39.216Z,10.00
2022-11-03T23:27:30.709Z,10.00
2022-11-03T23:30:19.126Z,10.00
2022-11-03T23:33:07.747Z,10.10
2022-11-03T23:35:56.197Z,10.10
2022-11-03T23:38:45.596Z,10.00
2022-11-03T23:41:35.279Z,10.00
2022-11-03T23:44:23.593Z,9.90
2022-11-03T23:47:29.461Z,9.90
2022-11-03T23:50:17.851Z,10.00
2022-11-03T23:53:06.172Z,10.00
2022-11-03T23:56:11.248Z,10.00
2022-11-03T23:59:00.944Z,9.90
